createdAt,value
2018-08-04T00:01:39.577Z,5.80
2018-08-04T00:04:08.064Z,4.20
2018-08-04T00:06:36.980Z,4.23
2018-08-04T00:09:09.648Z,3.47
2018-08-04T00:11:38.284Z,7.50
2018-08-04T00:14:06.870Z,4.13
2018-08-04T00:16:35.809Z,4.80
2018-08-04T00:19:04.349Z,2.30
2018-08-04T00:21:32.894Z,8.03
2018-08-04T00:24:01.469Z,3.10
2018-08-04T00:26:32.430Z,3.73
2018-08-04T00:29:02.124Z,5.87
2018-08-04T00:31:34.206Z,8.93
2018-08-04T00:34:02.791Z,2.40
2018-08-04T00:36:31.369Z,3.53
2018-08-04T00:38:59.837Z,3.87
2018-08-04T00:41:37.269Z,3.90
2018-08-04T00:44:05.827Z,3.03
2018-08-04T00:46:34.395Z,2.97
2018-08-04T00:49:02.863Z,4.30
2018-08-04T00:51:31.429Z,4.97
2018-08-04T00:53:59.880Z,6.10
2018-08-04T00:56:29.246Z,2.77
2018-08-04T00:58:57.764Z,4.10
2018-08-04T01:01:26.345Z,3.93
2018-08-04T01:03:54.841Z,3.37
2018-08-04T01:06:23.465Z,3.90
2018-08-04T01:08:52.003Z,3.60
2018-08-04T01:11:20.533Z,4.83
2018-08-04T01:13:49.136Z,4.13
2018-08-04T01:16:17.610Z,4.60
2018-08-04T01:18:46.057Z,7.03
2018-08-04T01:21:14.575Z,4.00
2018-08-04T01:23:43.043Z,5.57
2018-08-04T01:26:11.705Z,3.93
2018-08-04T01:28:40.119Z,3.43
2018-08-04T01:31:08.795Z,3.63
2018-08-04T01:33:37.287Z,3.80
2018-08-04T01:36:05.996Z,3.70
2018-08-04T01:38:34.442Z,7.60
2018-08-04T01:41:02.893Z,5.90
2018-08-04T01:43:31.423Z,6.70
2018-08-04T01:45:59.999Z,3.67
2018-08-04T01:48:29.092Z,2.43
2018-08-04T01:50:57.580Z,5.63
2018-08-04T01:53:26.135Z,2.93
2018-08-04T01:55:54.681Z,5.57
2018-08-04T01:58:23.104Z,3.47
2018-08-04T02:00:51.608Z,5.97
2018-08-04T02:03:20.116Z,7.93
2018-08-04T02:05:48.586Z,5.70
2018-08-04T02:08:17.146Z,3.90
2018-08-04T02:10:45.628Z,4.27
2018-08-04T02:13:14.129Z,3.30
2018-08-04T02:15:42.605Z,3.67
2018-08-04T02:18:11.016Z,6.93
2018-08-04T02:20:39.562Z,4.17
2018-08-04T02:23:08.048Z,3.77
2018-08-04T02:29:19.459Z,6.90
2018-08-04T02:31:47.894Z,4.97
2018-08-04T02:34:16.312Z,9.37
2018-08-04T02:36:44.744Z,2.80
2018-08-04T02:39:13.278Z,4.23
2018-08-04T02:41:41.764Z,3.43
2018-08-04T02:44:10.222Z,6.87
2018-08-04T02:46:38.792Z,4.20
2018-08-04T02:49:07.266Z,7.60
2018-08-04T02:52:00.477Z,7.80
2018-08-04T02:54:28.951Z,5.27
2018-08-04T02:56:57.438Z,5.00
2018-08-04T02:59:26.022Z,3.10
2018-08-04T03:01:54.474Z,6.00
2018-08-04T03:04:22.961Z,7.33
2018-08-04T03:06:51.455Z,3.40
2018-08-04T03:09:19.989Z,6.30
2018-08-04T03:11:48.553Z,3.63
2018-08-04T03:14:17.208Z,4.03
2018-08-04T03:16:45.710Z,5.60
2018-08-04T03:19:14.136Z,5.30
2018-08-04T03:21:42.662Z,3.57
2018-08-04T03:24:11.140Z,4.50
2018-08-04T03:27:10.662Z,5.60
2018-08-04T03:29:39.114Z,3.70
2018-08-04T03:32:07.923Z,5.73
2018-08-04T03:34:36.403Z,8.10
2018-08-04T03:37:04.980Z,6.73
2018-08-04T03:39:33.766Z,7.20
2018-08-04T03:42:02.264Z,5.70
2018-08-04T03:44:30.743Z,4.43
2018-08-04T03:46:59.209Z,7.27
2018-08-04T03:49:27.905Z,9.57
2018-08-04T03:51:56.416Z,10.37
2018-08-04T03:54:24.881Z,5.03
2018-08-04T03:56:53.426Z,5.00
2018-08-04T03:59:21.926Z,5.00
2018-08-04T04:01:50.417Z,7.57
2018-08-04T04:04:18.934Z,7.43
2018-08-04T04:06:47.523Z,5.67
2018-08-04T04:09:16.166Z,5.37
2018-08-04T04:11:44.632Z,6.03
2018-08-04T04:14:13.110Z,5.33
2018-08-04T04:16:41.612Z,8.03
2018-08-04T04:19:10.199Z,6.77
2018-08-04T04:21:38.821Z,8.87
2018-08-04T04:24:07.462Z,4.97
2018-08-04T04:26:35.956Z,6.00
2018-08-04T04:29:04.438Z,5.97
2018-08-04T04:31:32.925Z,4.50
2018-08-04T04:34:01.602Z,4.23
2018-08-04T04:36:30.093Z,7.33
2018-08-04T04:38:58.695Z,6.60
2018-08-04T04:41:27.346Z,6.90
2018-08-04T04:43:55.831Z,6.30
2018-08-04T04:46:24.370Z,6.40
2018-08-04T04:48:53.008Z,6.67
2018-08-04T04:51:21.475Z,4.93
2018-08-04T04:53:59.122Z,6.43
2018-08-04T04:56:27.657Z,6.17
2018-08-04T04:58:56.185Z,6.40
2018-08-04T05:01:24.724Z,5.80
2018-08-04T05:03:53.332Z,5.67
2018-08-04T05:06:21.840Z,5.23
2018-08-04T05:08:50.425Z,8.17
2018-08-04T05:11:18.871Z,3.57
2018-08-04T05:13:47.335Z,11.20
2018-08-04T05:16:15.764Z,4.70
2018-08-04T05:18:44.325Z,5.53
2018-08-04T05:21:12.824Z,4.40
2018-08-04T05:23:41.476Z,6.70
2018-08-04T05:26:09.968Z,5.80
2018-08-04T05:28:38.388Z,6.20
2018-08-04T05:31:07.333Z,6.30
2018-08-04T05:33:36.001Z,8.03
2018-08-04T05:36:04.508Z,6.00
2018-08-04T05:38:32.981Z,9.23
2018-08-04T05:41:01.399Z,6.17
2018-08-04T05:43:30.051Z,9.67
2018-08-04T05:45:58.520Z,6.37
2018-08-04T05:48:27.017Z,6.97
2018-08-04T05:50:55.585Z,5.57
2018-08-04T05:53:24.075Z,5.43
2018-08-04T05:55:52.685Z,7.33
2018-08-04T05:58:21.125Z,8.10
2018-08-04T06:00:49.718Z,6.20
2018-08-04T06:03:18.145Z,9.10
2018-08-04T06:05:46.714Z,6.13
2018-08-04T06:08:15.271Z,7.13
2018-08-04T06:10:43.772Z,5.60
2018-08-04T06:13:12.328Z,7.77
2018-08-04T06:15:43.065Z,6.60
2018-08-04T06:18:11.559Z,6.80
2018-08-04T06:20:40.137Z,9.30
2018-08-04T06:23:08.594Z,6.20
2018-08-04T06:25:37.076Z,14.20
2018-08-04T06:28:06.133Z,5.57
2018-08-04T06:30:35.305Z,5.43
2018-08-04T06:33:03.771Z,6.80
2018-08-04T06:35:32.261Z,6.90
2018-08-04T06:38:00.685Z,5.13
2018-08-04T06:40:29.255Z,6.57
2018-08-04T06:42:57.701Z,7.60
2018-08-04T06:45:26.220Z,11.67
2018-08-04T06:47:54.876Z,7.20
2018-08-04T06:50:23.440Z,10.13
2018-08-04T06:52:51.959Z,9.20
2018-08-04T06:55:20.517Z,9.87
2018-08-04T06:57:48.977Z,4.73
2018-08-04T07:00:17.507Z,8.13
2018-08-04T07:02:46.065Z,9.20
2018-08-04T07:05:14.580Z,5.63
2018-08-04T07:07:43.162Z,9.13
2018-08-04T07:10:11.718Z,7.07
2018-08-04T07:12:40.216Z,8.90
2018-08-04T07:15:08.767Z,4.10
2018-08-04T07:17:37.197Z,4.83
2018-08-04T07:20:06.101Z,10.47
2018-08-04T07:22:34.639Z,8.37
2018-08-04T07:25:03.148Z,6.23
2018-08-04T07:27:33.976Z,11.10
2018-08-04T07:30:02.476Z,4.90
2018-08-04T07:32:31.010Z,9.87
2018-08-04T07:34:59.494Z,6.37
2018-08-04T07:37:27.997Z,9.10
2018-08-04T07:39:56.626Z,5.10
2018-08-04T07:42:25.153Z,5.70
2018-08-04T07:44:53.603Z,4.60
2018-08-04T07:47:22.117Z,7.47
2018-08-04T07:49:50.591Z,7.30
2018-08-04T07:52:19.146Z,4.80
2018-08-04T07:54:47.671Z,5.70
2018-08-04T07:57:16.171Z,9.07
2018-08-04T07:59:44.719Z,4.73
2018-08-04T08:02:13.165Z,5.00
2018-08-04T08:04:41.703Z,12.63
2018-08-04T08:07:10.253Z,4.43
2018-08-04T08:09:38.760Z,6.87
2018-08-04T08:12:07.274Z,3.07
2018-08-04T08:14:36.025Z,3.13
2018-08-04T08:17:04.569Z,1.47
2018-08-04T08:19:33.096Z,3.57
2018-08-04T08:22:01.632Z,4.93
2018-08-04T08:24:30.201Z,4.03
2018-08-04T08:27:04.106Z,2.43
2018-08-04T08:29:32.672Z,2.70
2018-08-04T08:32:01.246Z,1.10
2018-08-04T08:34:29.732Z,1.77
2018-08-04T08:36:58.329Z,1.63
2018-08-04T08:39:26.898Z,3.20
2018-08-04T08:41:55.475Z,4.73
2018-08-04T08:44:23.956Z,1.70
2018-08-04T08:46:52.535Z,1.50
2018-08-04T08:49:21.086Z,2.07
2018-08-04T08:51:49.669Z,2.67
2018-08-04T08:54:18.181Z,1.73
2018-08-04T08:56:46.669Z,2.87
2018-08-04T08:59:15.181Z,1.53
2018-08-04T09:01:43.744Z,4.67
2018-08-04T09:04:12.316Z,2.00
2018-08-04T09:06:40.833Z,1.90
2018-08-04T09:09:10.625Z,2.80
2018-08-04T09:11:39.171Z,2.27
2018-08-04T09:14:07.769Z,1.93
2018-08-04T09:17:08.328Z,2.03
2018-08-04T09:19:36.809Z,2.50
2018-08-04T09:22:27.122Z,2.93
2018-08-04T09:24:55.770Z,1.50
2018-08-04T09:28:04.209Z,3.70
2018-08-04T09:30:32.955Z,3.93
2018-08-04T09:33:03.633Z,5.03
2018-08-04T09:35:32.187Z,2.77
2018-08-04T09:38:00.831Z,2.17
2018-08-04T09:40:29.504Z,3.30
2018-08-04T09:42:58.045Z,1.83
2018-08-04T09:45:26.637Z,5.10
2018-08-04T09:47:55.374Z,2.33
2018-08-04T09:50:23.911Z,3.70
2018-08-04T09:52:52.361Z,5.27
2018-08-04T09:55:20.863Z,4.70
2018-08-04T09:57:49.313Z,3.10
2018-08-04T10:00:22.965Z,2.20
2018-08-04T10:02:51.530Z,2.47
2018-08-04T10:05:20.084Z,8.00
2018-08-04T10:07:48.597Z,2.43
2018-08-04T10:10:17.215Z,3.93
2018-08-04T10:12:45.801Z,10.50
2018-08-04T10:15:14.364Z,2.20
2018-08-04T10:17:42.950Z,6.00
2018-08-04T10:20:12.480Z,3.47
2018-08-04T10:22:41.051Z,4.60
2018-08-04T10:25:09.811Z,1.67
2018-08-04T10:27:38.294Z,4.43
2018-08-04T10:30:09.299Z,2.50
2018-08-04T10:32:37.939Z,5.50
2018-08-04T10:35:06.804Z,2.53
2018-08-04T10:37:35.286Z,3.20
2018-08-04T10:40:03.828Z,10.63
2018-08-04T10:42:32.382Z,1.83
2018-08-04T10:45:00.823Z,1.63
2018-08-04T10:47:29.330Z,3.53
2018-08-04T10:49:57.894Z,5.63
2018-08-04T10:52:26.403Z,7.83
2018-08-04T10:54:54.904Z,2.33
2018-08-04T10:57:23.374Z,1.63
2018-08-04T10:59:51.950Z,1.80
2018-08-04T11:02:20.498Z,3.60
2018-08-04T11:04:48.993Z,4.93
2018-08-04T11:07:17.478Z,4.07
2018-08-04T11:09:46.146Z,2.60
2018-08-04T11:12:14.680Z,4.37
2018-08-04T11:14:43.769Z,2.17
2018-08-04T11:17:12.317Z,4.60
2018-08-04T11:19:41.036Z,1.93
2018-08-04T11:22:09.594Z,5.13
2018-08-04T11:24:38.070Z,3.17
2018-08-04T11:27:06.580Z,2.50
2018-08-04T11:29:35.222Z,2.00
2018-08-04T11:35:24.937Z,1.73
2018-08-04T11:41:31.904Z,1.80
2018-08-04T11:44:00.410Z,1.70
2018-08-04T11:46:29.364Z,3.53
2018-08-04T11:48:57.886Z,3.37
2018-08-04T11:51:26.410Z,2.83
2018-08-04T11:53:55.005Z,2.20
2018-08-04T11:56:23.534Z,2.33
2018-08-04T11:58:52.006Z,4.67
2018-08-04T12:01:20.666Z,6.50
2018-08-04T12:03:49.195Z,1.90
2018-08-04T12:06:17.875Z,1.90
2018-08-04T12:08:46.486Z,2.63
2018-08-04T12:11:15.084Z,2.60
2018-08-04T12:13:43.620Z,4.40
2018-08-04T12:16:12.224Z,6.17
2018-08-04T12:18:40.826Z,2.20
2018-08-04T12:21:09.361Z,2.43
2018-08-04T12:23:37.973Z,2.87
2018-08-04T12:26:06.528Z,4.03
2018-08-04T12:28:35.016Z,9.40
2018-08-04T12:31:03.515Z,2.47
2018-08-04T12:33:32.088Z,4.50
2018-08-04T12:36:00.563Z,2.98
2018-08-04T12:38:29.334Z,1.90
2018-08-04T12:40:57.854Z,2.80
2018-08-04T12:43:26.336Z,5.97
2018-08-04T12:45:54.806Z,1.92
2018-08-04T12:48:23.313Z,2.87
2018-08-04T12:50:51.851Z,2.47
2018-08-04T12:53:20.350Z,13.13
2018-08-04T12:55:49.007Z,10.72
2018-08-04T12:58:17.529Z,2.75
2018-08-04T13:00:46.526Z,2.72
2018-08-04T13:03:15.055Z,1.87
2018-08-04T13:05:43.753Z,5.47
2018-08-04T13:08:12.258Z,2.58
2018-08-04T13:10:40.823Z,3.58
2018-08-04T13:13:09.453Z,3.02
2018-08-04T13:15:37.900Z,6.28
2018-08-04T13:18:06.470Z,3.72
2018-08-04T13:20:34.946Z,1.95
2018-08-04T13:23:03.430Z,5.33
2018-08-04T13:25:31.916Z,2.92
2018-08-04T13:28:00.394Z,1.80
2018-08-04T13:30:28.928Z,3.85
2018-08-04T13:32:57.457Z,2.60
2018-08-04T13:35:26.472Z,1.67
2018-08-04T13:37:54.922Z,4.33
2018-08-04T13:40:23.508Z,2.10
2018-08-04T13:42:52.053Z,2.35
2018-08-04T13:45:20.670Z,1.45
2018-08-04T13:47:49.189Z,5.20
2018-08-04T13:50:19.432Z,2.47
2018-08-04T13:52:47.969Z,11.53
2018-08-04T13:55:18.700Z,4.55
2018-08-04T13:57:47.395Z,13.08
2018-08-04T14:00:15.997Z,2.87
2018-08-04T14:02:44.566Z,2.25
2018-08-04T14:05:13.181Z,1.57
2018-08-04T14:07:41.785Z,1.45
2018-08-04T14:10:10.301Z,2.80
2018-08-04T14:12:38.980Z,3.50
2018-08-04T14:15:07.458Z,1.90
2018-08-04T14:17:36.094Z,2.13
2018-08-04T14:20:26.063Z,2.33
2018-08-04T14:22:54.660Z,2.60
2018-08-04T14:25:23.212Z,4.53
2018-08-04T14:27:51.691Z,3.67
2018-08-04T14:30:20.189Z,2.03
2018-08-04T14:32:48.739Z,4.93
2018-08-04T14:35:17.249Z,2.27
2018-08-04T14:37:45.834Z,2.53
2018-08-04T14:40:14.365Z,2.30
2018-08-04T14:42:43.036Z,3.10
2018-08-04T14:45:12.017Z,6.07
2018-08-04T14:47:40.542Z,4.33
2018-08-04T14:50:09.180Z,1.73
2018-08-04T14:52:37.627Z,1.73
2018-08-04T14:55:06.602Z,3.07
2018-08-04T14:57:35.261Z,3.60
2018-08-04T15:00:03.810Z,2.50
2018-08-04T15:02:33.570Z,4.57
2018-08-04T15:05:02.219Z,3.97
2018-08-04T15:07:30.682Z,2.77
2018-08-04T15:09:59.237Z,2.10
2018-08-04T15:12:27.839Z,2.87
2018-08-04T15:14:56.395Z,2.33
2018-08-04T15:17:24.934Z,3.13
2018-08-04T15:19:53.434Z,8.30
2018-08-04T15:22:21.966Z,1.97
2018-08-04T15:24:50.572Z,2.60
2018-08-04T15:27:19.114Z,2.00
2018-08-04T15:29:47.561Z,3.87
2018-08-04T15:32:16.015Z,4.63
2018-08-04T15:34:44.585Z,2.77
2018-08-04T15:37:13.214Z,4.40
2018-08-04T15:39:41.712Z,3.83
2018-08-04T15:42:10.238Z,2.87
2018-08-04T15:44:38.773Z,2.03
2018-08-04T15:47:07.308Z,2.03
2018-08-04T15:49:35.893Z,2.70
2018-08-04T15:52:04.419Z,5.97
2018-08-04T15:54:32.905Z,5.10
2018-08-04T15:57:01.545Z,6.70
2018-08-04T15:59:30.077Z,2.40
2018-08-04T16:01:58.610Z,2.33
2018-08-04T16:04:27.161Z,2.30
2018-08-04T16:06:55.713Z,2.97
2018-08-04T16:09:24.191Z,3.47
2018-08-04T16:11:52.661Z,3.47
2018-08-04T16:14:21.669Z,5.20
2018-08-04T16:16:50.166Z,4.53
2018-08-04T16:19:18.840Z,2.50
2018-08-04T16:21:47.364Z,2.53
2018-08-04T16:24:16.091Z,2.57
2018-08-04T16:26:44.815Z,3.83
2018-08-04T16:29:13.276Z,2.33
2018-08-04T16:31:41.756Z,2.23
2018-08-04T16:34:10.238Z,6.53
2018-08-04T16:36:38.751Z,4.73
2018-08-04T16:39:09.365Z,2.80
2018-08-04T16:41:37.963Z,2.97
2018-08-04T16:44:06.632Z,2.40
2018-08-04T16:46:35.138Z,3.03
2018-08-04T16:49:03.745Z,2.77
2018-08-04T16:51:32.233Z,4.53
2018-08-04T16:54:00.759Z,7.17
2018-08-04T16:56:29.201Z,4.40
2018-08-04T16:58:57.716Z,3.40
2018-08-04T17:01:26.390Z,5.00
2018-08-04T17:03:55.941Z,3.47
2018-08-04T17:06:24.555Z,7.23
2018-08-04T17:08:53.078Z,3.80
2018-08-04T17:11:21.770Z,3.97
2018-08-04T17:13:50.394Z,7.87
2018-08-04T17:16:18.861Z,7.63
2018-08-04T17:18:47.381Z,6.13
2018-08-04T17:21:15.896Z,5.67
2018-08-04T17:23:44.568Z,4.47
2018-08-04T17:26:13.067Z,6.20
2018-08-04T17:28:41.668Z,2.83
2018-08-04T17:31:10.237Z,2.67
2018-08-04T17:33:38.930Z,5.50
2018-08-04T17:36:07.603Z,5.87
2018-08-04T17:38:36.231Z,3.27
2018-08-04T17:41:04.809Z,6.67
2018-08-04T17:43:33.343Z,4.10
2018-08-04T17:46:01.964Z,4.00
2018-08-04T17:48:30.522Z,15.13
2018-08-04T17:50:58.999Z,5.73
2018-08-04T17:53:27.593Z,3.83
2018-08-04T17:55:56.054Z,5.70
2018-08-04T17:58:24.552Z,13.70
2018-08-04T18:00:53.041Z,5.47
2018-08-04T18:03:21.550Z,2.90
2018-08-04T18:05:49.992Z,4.80
2018-08-04T18:08:18.684Z,7.57
2018-08-04T18:10:47.154Z,5.50
2018-08-04T18:13:15.701Z,3.30
2018-08-04T18:15:44.235Z,5.37
2018-08-04T18:18:12.794Z,5.33
2018-08-04T18:20:41.288Z,9.37
2018-08-04T18:23:09.892Z,5.70
2018-08-04T18:25:38.444Z,3.40
2018-08-04T18:28:06.884Z,2.20
2018-08-04T18:30:35.522Z,4.13
2018-08-04T18:33:04.048Z,6.83
2018-08-04T18:35:32.594Z,5.23
2018-08-04T18:38:01.260Z,7.73
2018-08-04T18:41:13.859Z,3.00
2018-08-04T18:43:42.371Z,3.77
2018-08-04T18:46:10.956Z,5.10
2018-08-04T18:48:39.527Z,4.50
2018-08-04T18:51:08.322Z,2.13
2018-08-04T18:53:37.030Z,3.53
2018-08-04T18:56:05.694Z,3.10
2018-08-04T18:58:34.190Z,4.67
2018-08-04T19:01:02.702Z,4.00
2018-08-04T19:03:31.256Z,20.30
2018-08-04T19:05:59.923Z,3.77
2018-08-04T19:08:28.388Z,5.90
2018-08-04T19:10:56.902Z,3.37
2018-08-04T19:13:25.482Z,5.53
2018-08-04T19:15:54.065Z,2.90
2018-08-04T19:18:22.838Z,2.53
2018-08-04T19:20:51.374Z,1.87
2018-08-04T19:23:19.922Z,3.40
2018-08-04T19:25:48.403Z,3.13
2018-08-04T19:28:16.982Z,3.13
2018-08-04T19:30:45.499Z,6.93
2018-08-04T19:33:13.992Z,3.20
2018-08-04T19:35:42.575Z,2.07
2018-08-04T19:38:11.084Z,5.90
2018-08-04T19:40:39.746Z,6.80
2018-08-04T19:43:08.273Z,3.80
2018-08-04T19:46:27.916Z,2.50
2018-08-04T19:48:56.426Z,2.57
2018-08-04T19:51:24.959Z,2.83
2018-08-04T19:53:54.595Z,2.87
2018-08-04T19:56:23.161Z,7.83
2018-08-04T19:58:51.964Z,3.53
2018-08-04T20:01:20.506Z,2.83
2018-08-04T20:03:49.303Z,2.70
2018-08-04T20:06:18.156Z,4.40
2018-08-04T20:08:46.821Z,2.33
2018-08-04T20:11:15.445Z,6.70
2018-08-04T20:13:43.968Z,2.83
2018-08-04T20:16:12.548Z,3.73
2018-08-04T20:18:41.908Z,3.10
2018-08-04T20:21:10.670Z,5.57
2018-08-04T20:23:39.454Z,3.30
2018-08-04T20:26:08.032Z,5.53
2018-08-04T20:28:36.569Z,6.90
2018-08-04T20:31:05.410Z,3.23
2018-08-04T20:33:34.226Z,5.00
2018-08-04T20:36:02.942Z,6.70
2018-08-04T20:38:31.620Z,5.10
2018-08-04T20:41:00.494Z,4.00
2018-08-04T20:43:29.052Z,3.23
2018-08-04T20:45:57.573Z,4.27
2018-08-04T20:48:26.205Z,7.23
2018-08-04T20:50:54.941Z,6.47
2018-08-04T20:53:24.249Z,3.00
2018-08-04T20:55:52.758Z,2.97
2018-08-04T20:58:21.396Z,6.07
2018-08-04T21:01:01.118Z,4.00
2018-08-04T21:03:29.737Z,4.70
2018-08-04T21:05:58.437Z,3.03
2018-08-04T21:09:02.920Z,7.63
2018-08-04T21:11:31.519Z,4.30
2018-08-04T21:14:00.115Z,4.00
2018-08-04T21:16:28.781Z,6.80
2018-08-04T21:18:57.689Z,5.83
2018-08-04T21:21:26.513Z,8.20
2018-08-04T21:23:55.075Z,4.83
2018-08-04T21:26:23.748Z,6.13
2018-08-04T21:28:52.370Z,5.50
2018-08-04T21:31:20.944Z,6.67
2018-08-04T21:33:49.504Z,6.20
2018-08-04T21:36:18.003Z,12.03
2018-08-04T21:38:47.762Z,7.27
2018-08-04T21:41:16.561Z,6.70
2018-08-04T21:43:47.241Z,8.30
2018-08-04T21:46:16.442Z,6.70
2018-08-04T21:48:45.924Z,9.10
2018-08-04T21:51:14.425Z,6.53
2018-08-04T21:53:42.981Z,11.60
2018-08-04T21:56:11.662Z,8.60
2018-08-04T21:58:40.268Z,10.90
2018-08-04T22:01:13.996Z,9.33
2018-08-04T22:03:43.914Z,10.27
2018-08-04T22:06:13.095Z,13.00
2018-08-04T22:08:52.982Z,12.27
2018-08-04T22:11:21.570Z,9.70
2018-08-04T22:13:50.152Z,13.40
2018-08-04T22:16:18.745Z,10.80
2018-08-04T22:18:47.337Z,12.33
2018-08-04T22:21:15.960Z,11.73
2018-08-04T22:23:44.876Z,15.40
2018-08-04T22:26:13.644Z,11.67
2018-08-04T22:28:42.316Z,16.90
2018-08-04T22:31:11.018Z,14.07
2018-08-04T22:33:39.718Z,16.73
2018-08-04T22:36:08.475Z,14.50
2018-08-04T22:38:37.309Z,18.43
2018-08-04T22:41:06.196Z,14.83
2018-08-04T22:43:34.684Z,18.03
2018-08-04T22:46:04.749Z,14.70
2018-08-04T22:48:33.722Z,18.53
2018-08-04T22:51:03.100Z,14.27
2018-08-04T22:53:32.034Z,18.20
2018-08-04T22:56:00.590Z,15.47
2018-08-04T22:58:29.309Z,18.57
2018-08-04T23:00:58.018Z,17.73
2018-08-04T23:03:26.519Z,17.63
2018-08-04T23:05:55.135Z,14.13
2018-08-04T23:08:23.748Z,17.37
2018-08-04T23:10:52.292Z,16.73
2018-08-04T23:13:20.868Z,14.27
2018-08-04T23:15:49.496Z,18.50
2018-08-04T23:25:03.191Z,14.50
2018-08-04T23:27:44.487Z,14.30
2018-08-04T23:30:12.957Z,14.43
2018-08-04T23:32:41.468Z,11.83
2018-08-04T23:35:09.917Z,15.77
2018-08-04T23:37:38.529Z,13.43
2018-08-04T23:40:07.033Z,16.70
2018-08-04T23:42:35.557Z,15.63
2018-08-04T23:45:04.273Z,11.10
2018-08-04T23:47:33.351Z,16.07
2018-08-04T23:50:02.140Z,19.43
2018-08-04T23:52:30.594Z,18.73
2018-08-04T23:54:59.037Z,19.73
2018-08-04T23:57:27.690Z,14.57
2018-08-04T23:59:56.226Z,17.33
